Time;durP1;ratioP1;P1;durP2;ratioP2;P2;SDS_P1;SDS_P2;PMS_P1;PMS_P2;Temp;Humidity;BMP_temperature;BMP_pressure;BME280_temperature;BME280_humidity;BME280_pressure;Samples;Min_cycle;Max_cycle;Signal;HPM_P1;HPM_P2
2022/11/15 00:02:04;;;;;;;30.00;24.73;;;6.90;99.90;;;;;;4958909;28;20031;-77
2022/11/15 00:04:43;;;;;;;28.15;24.33;;;6.90;99.90;;;;;;5110245;27;20399;-77
2022/11/15 00:07:09;;;;;;;30.92;24.70;;;6.90;99.90;;;;;;5091470;28;20459;-77
2022/11/15 00:09:42;;;;;;;30.13;24.58;;;6.90;99.90;;;;;;5088100;28;20029;-77
2022/11/15 00:12:10;;;;;;;;;;;6.90;99.90;;;;;;5103525;28;20131;-77
2022/11/15 00:14:43;;;;;;;30.98;24.35;;;6.90;99.90;;;;;;5084748;28;19915;-77
2022/11/15 00:17:11;;;;;;;;;;;6.90;99.90;;;;;;5120505;22;20110;-76
2022/11/15 00:19:42;;;;;;;29.52;25.25;;;7.00;99.90;;;;;;5067976;28;19920;-77
2022/11/15 00:22:28;;;;;;;30.65;25.02;;;7.00;99.90;;;;;;5083570;28;20033;-77
2022/11/15 00:25:05;;;;;;;29.40;23.65;;;7.00;99.90;;;;;;5076520;28;20106;-76
2022/11/15 00:27:36;;;;;;;29.77;23.83;;;7.00;99.90;;;;;;5070186;28;20085;-76
2022/11/15 00:30:02;;;;;;;28.58;24.33;;;6.90;99.90;;;;;;5070837;28;20493;-76
2022/11/15 00:32:37;;;;;;;29.48;24.50;;;6.90;99.90;;;;;;5084305;28;20074;-76
2022/11/15 00:35:03;;;;;;;29.73;25.10;;;6.90;99.90;;;;;;5046155;28;20040;-76
2022/11/15 00:37:49;;;;;;;28.27;23.75;;;7.00;99.90;;;;;;5042873;28;20052;-76
2022/11/15 00:40:22;;;;;;;29.33;24.10;;;7.00;99.90;;;;;;5066961;28;20036;-76
2022/11/15 00:42:51;;;;;;;30.33;24.83;;;7.00;99.90;;;;;;5077482;28;20490;-76
2022/11/15 00:45:24;;;;;;;29.17;23.80;;;7.00;99.90;;;;;;5067805;28;20040;-76
2022/11/15 00:47:55;;;;;;;;;;;7.00;99.90;;;;;;5066191;28;20494;-76
2022/11/15 00:50:24;;;;;;;29.52;23.63;;;7.00;99.90;;;;;;5066943;28;19921;-76
2022/11/15 00:52:51;;;;;;;28.02;23.85;;;7.00;99.90;;;;;;5066309;28;20414;-76
2022/11/15 00:55:20;;;;;;;29.63;24.27;;;7.00;99.90;;;;;;5066434;28;20052;-76
2022/11/15 00:57:55;;;;;;;30.98;24.50;;;7.00;99.90;;;;;;5066067;28;20125;-75
2022/11/15 01:00:26;;;;;;;29.00;23.52;;;7.00;99.90;;;;;;5067042;28;20044;-76
2022/11/15 01:02:57;;;;;;;29.58;23.75;;;7.00;99.90;;;;;;5065689;28;20131;-76
2022/11/15 01:05:23;;;;;;;31.30;25.08;;;7.00;99.90;;;;;;5049528;28;20491;-76
2022/11/15 01:07:53;;;;;;;30.42;23.85;;;7.00;99.90;;;;;;5049744;28;20094;-76
2022/11/15 01:10:23;;;;;;;31.48;24.48;;;7.00;99.90;;;;;;5067145;28;20068;-76
2022/11/15 01:12:49;;;;;;;32.80;24.13;;;7.00;99.90;;;;;;5079936;28;20418;-76
2022/11/15 01:15:18;;;;;;;28.73;23.65;;;7.00;99.90;;;;;;5044443;28;20503;-77
2022/11/15 01:17:57;;;;;;;30.42;23.73;;;7.00;99.90;;;;;;5052807;28;20045;-76
2022/11/15 01:20:27;;;;;;;31.17;23.38;;;7.00;99.90;;;;;;5051118;28;20052;-76
2022/11/15 01:23:00;;;;;;;30.27;23.60;;;7.00;99.90;;;;;;5037072;28;20052;-76
2022/11/15 01:25:41;;;;;;;29.42;23.50;;;7.10;99.90;;;;;;5037538;28;20032;-75
2022/11/15 01:28:15;;;;;;;32.83;24.25;;;7.10;99.90;;;;;;5035327;28;20057;-76
2022/11/15 01:30:44;;;;;;;29.13;23.55;;;7.00;99.90;;;;;;5053030;28;20044;-76
2022/11/15 01:33:21;;;;;;;31.42;23.88;;;7.00;99.90;;;;;;5053586;28;20051;-76
2022/11/15 01:35:47;;;;;;;28.83;22.73;;;7.00;99.90;;;;;;5047826;28;20729;-76
2022/11/15 01:38:27;;;;;;;31.50;23.63;;;7.00;99.90;;;;;;5036482;28;20057;-76
2022/11/15 01:40:57;;;;;;;32.65;24.45;;;7.10;99.90;;;;;;5051961;28;20124;-76
2022/11/15 01:43:27;;;;;;;28.92;23.13;;;7.10;99.90;;;;;;5031521;28;20482;-76
2022/11/15 01:46:29;;;;;;;32.20;23.77;;;7.10;99.90;;;;;;5034700;28;20045;-76
2022/11/15 01:49:01;;;;;;;31.75;24.02;;;7.10;99.90;;;;;;5026018;28;20048;-76
2022/11/15 01:51:31;;;;;;;33.72;24.23;;;7.10;99.90;;;;;;5048797;28;20120;-76
2022/11/15 01:54:11;;;;;;;35.55;24.40;;;7.10;99.90;;;;;;5062231;28;20087;-76
2022/11/15 01:57:11;;;;;;;;;;;;;;;;;;;;;
2022/11/15 01:59:43;;;;;;;35.25;24.58;;;7.10;99.90;;;;;;5052550;28;20415;-76
2022/11/15 02:02:20;;;;;;;36.47;24.35;;;7.20;99.90;;;;;;5036313;28;20044;-76
2022/11/15 02:04:55;;;;;;;36.63;24.77;;;7.20;99.90;;;;;;5051491;28;20052;-77
2022/11/15 02:07:30;;;;;;;35.90;25.00;;;7.30;99.90;;;;;;5051964;28;20069;-76
2022/11/15 02:10:04;;;;;;;37.47;25.33;;;7.20;99.90;;;;;;5052646;28;20037;-76
2022/11/15 02:12:35;;;;;;;36.70;24.65;;;7.30;99.90;;;;;;5035023;28;20041;-76
2022/11/15 02:15:12;;;;;;;38.83;24.63;;;7.30;99.90;;;;;;5057766;28;20463;-76
2022/11/15 02:18:04;;;;;;;42.63;25.88;;;7.30;99.90;;;;;;5051682;28;20068;-77
2022/11/15 02:20:38;;;;;;;40.67;25.13;;;7.30;99.90;;;;;;5031598;28;20402;-76
2022/11/15 02:23:28;;;;;;;38.53;25.48;;;7.30;99.90;;;;;;5068958;28;20063;-76
2022/11/15 02:26:07;;;;;;;38.30;24.52;;;7.40;99.90;;;;;;5045306;28;20033;-77
2022/11/15 02:28:35;;;;;;;39.47;24.38;;;7.40;99.90;;;;;;5035355;28;20135;-76
2022/11/15 02:31:11;;;;;;;42.65;26.88;;;7.40;99.90;;;;;;5051245;28;20041;-76
2022/11/15 02:33:46;;;;;;;37.85;24.90;;;7.40;99.90;;;;;;5051278;28;20040;-76
2022/11/15 02:36:25;;;;;;;36.55;23.92;;;7.40;99.90;;;;;;5051511;28;20048;-76
2022/11/15 02:38:58;;;;;;;43.85;27.33;;;7.40;99.90;;;;;;5051851;28;20053;-76
2022/11/15 02:41:27;;;;;;;;;;;7.50;99.90;;;;;;5035314;28;20179;-76
2022/11/15 02:43:59;;;;;;;46.47;26.92;;;7.50;99.90;;;;;;5050878;28;19920;-76
2022/11/15 02:47:15;;;;;;;46.20;27.42;;;7.50;99.90;;;;;;5046746;28;20067;-76
2022/11/15 02:49:48;;;;;;;45.33;27.70;;;7.50;99.90;;;;;;5015218;28;20050;-76
2022/11/15 02:52:22;;;;;;;41.50;26.45;;;7.50;99.90;;;;;;5065465;28;20041;-76
2022/11/15 02:55:00;;;;;;;42.20;25.88;;;7.60;99.90;;;;;;5049821;28;20049;-76
2022/11/15 02:57:50;;;;;;;48.40;27.63;;;7.60;99.90;;;;;;5034452;28;20044;-76
2022/11/15 03:00:18;;;;;;;45.80;27.60;;;7.60;99.90;;;;;;5034707;28;20064;-76
2022/11/15 03:02:47;;;;;;;45.97;27.33;;;7.60;99.90;;;;;;5051155;28;20453;-76
2022/11/15 03:05:29;;;;;;;46.13;27.58;;;7.60;99.90;;;;;;5045238;28;20033;-76
2022/11/15 03:08:05;;;;;;;46.17;28.98;;;7.60;99.90;;;;;;5033840;28;20125;-76
2022/11/15 03:10:46;;;;;;;52.60;29.45;;;7.60;99.90;;;;;;5036567;28;20048;-76
2022/11/15 03:13:17;;;;;;;56.25;29.95;;;7.70;99.90;;;;;;5037118;28;20055;-76
2022/11/15 03:16:07;;;;;;;61.20;31.42;;;7.70;99.90;;;;;;5050789;28;20049;-76
2022/11/15 03:18:42;;;;;;;67.00;31.35;;;7.70;99.90;;;;;;5050739;28;20049;-76
2022/11/15 03:21:11;;;;;;;60.10;31.85;;;7.70;99.90;;;;;;5050131;28;20130;-76
2022/11/15 03:23:39;;;;;;;61.10;32.20;;;7.70;99.90;;;;;;5066969;28;20079;-76
2022/11/15 03:26:09;;;;;;;71.75;32.53;;;7.70;99.90;;;;;;5051050;28;20404;-76
2022/11/15 03:28:43;;;;;;;61.28;32.10;;;7.70;99.90;;;;;;5033939;28;20048;-76
2022/11/15 03:33:58;;;;;;;67.93;34.13;;;7.80;99.90;;;;;;5050335;28;20047;-76
2022/11/15 03:36:25;;;;;;;78.07;34.13;;;7.80;99.90;;;;;;5049849;28;20090;-75
2022/11/15 03:38:56;;;;;;;66.72;35.15;;;7.80;99.90;;;;;;5066941;28;20067;-76
2022/11/15 03:41:28;;;;;;;78.95;37.08;;;7.80;99.90;;;;;;5050405;28;20406;-76
2022/11/15 03:44:04;;;;;;;79.25;35.47;;;7.80;99.90;;;;;;5050232;28;20033;-76
2022/11/15 03:46:59;;;;;;;72.38;35.38;;;7.80;99.90;;;;;;5069053;28;20041;-76
2022/11/15 03:49:34;;;;;;;85.20;37.85;;;7.90;99.90;;;;;;5045114;28;20609;-76
2022/11/15 03:52:02;;;;;;;94.15;38.08;;;7.90;99.90;;;;;;5083379;28;20037;-76
2022/11/15 03:54:28;;;;;;;89.32;38.33;;;7.90;99.90;;;;;;5048827;28;20032;-76
2022/11/15 03:56:54;;;;;;;88.60;40.05;;;7.90;99.90;;;;;;5066993;28;20060;-76
2022/11/15 03:59:19;;;;;;;107.38;42.95;;;8.00;99.90;;;;;;5050342;28;20037;-76
2022/11/15 04:01:45;;;;;;;103.70;41.63;;;8.00;99.90;;;;;;5050407;28;20040;-76
2022/11/15 04:04:10;;;;;;;95.47;41.78;;;8.00;99.90;;;;;;5032657;28;20091;-76
2022/11/15 04:06:36;;;;;;;95.57;41.70;;;8.00;99.90;;;;;;5049889;28;20040;-76
2022/11/15 04:09:02;;;;;;;92.47;39.97;;;8.10;99.90;;;;;;5033723;28;20119;-76
2022/11/15 04:11:28;;;;;;;98.50;40.42;;;8.10;99.90;;;;;;5033362;28;20036;-76
2022/11/15 04:13:53;;;;;;;91.13;42.33;;;8.10;99.90;;;;;;5049752;28;20514;-75
2022/11/15 04:16:19;;;;;;;89.28;41.05;;;8.10;99.90;;;;;;5083431;28;20506;-75
2022/11/15 04:18:44;;;;;;;101.32;41.92;;;8.20;99.90;;;;;;5049638;28;20044;-75
2022/11/15 04:24:12;;;;;;;105.40;43.42;;;8.20;99.90;;;;;;5056344;28;20560;-76
2022/11/15 04:26:37;;;;;;;103.88;43.72;;;8.20;99.90;;;;;;5030156;28;20052;-76
2022/11/15 04:31:47;;;;;;;100.78;44.88;;;8.30;99.90;;;;;;5040347;28;20049;-76
2022/11/15 04:34:13;;;;;;;116.72;45.60;;;8.40;99.90;;;;;;5049345;28;20044;-75
2022/11/15 04:39:22;;;;;;;83.57;41.97;;;8.40;99.90;;;;;;5049957;28;20047;-75
2022/11/15 04:41:48;;;;;;;91.72;43.55;;;8.50;99.90;;;;;;5038160;28;20049;-75
2022/11/15 04:44:13;;;;;;;91.85;43.22;;;8.50;99.90;;;;;;5029284;28;20045;-75
2022/11/15 04:46:39;;;;;;;92.18;43.83;;;8.50;99.90;;;;;;5047976;28;20048;-76
2022/11/15 04:49:05;;;;;;;84.22;42.50;;;8.60;99.90;;;;;;5032969;28;20412;-75
2022/11/15 04:51:30;;;;;;;103.13;44.75;;;8.60;99.90;;;;;;5056022;28;20101;-75
2022/11/15 04:53:56;;;;;;;106.03;45.08;;;8.60;99.90;;;;;;5059095;28;20053;-75
2022/11/15 04:56:21;;;;;;;94.07;45.08;;;8.70;99.90;;;;;;5053005;28;20041;-75
2022/11/15 04:58:50;;;;;;;84.03;42.58;;;8.70;99.90;;;;;;5053000;28;20049;-76
2022/11/15 05:01:16;;;;;;;83.97;43.47;;;8.70;99.90;;;;;;5052886;28;20083;-75
2022/11/15 05:06:28;;;;;;;83.82;43.20;;;8.80;99.90;;;;;;5053248;28;20079;-76
2022/11/15 05:08:54;;;;;;;92.20;44.60;;;8.80;99.90;;;;;;5053672;28;20037;-76
2022/11/15 05:11:20;;;;;;;69.43;40.08;;;8.80;99.90;;;;;;5036186;28;20094;-75
2022/11/15 05:13:46;;;;;;;69.32;40.63;;;8.80;99.90;;;;;;5053195;28;20041;-76
2022/11/15 05:16:12;;;;;;;79.45;40.85;;;8.90;99.90;;;;;;5056023;28;20037;-76
2022/11/15 05:18:40;;;;;;;70.75;38.88;;;8.90;99.90;;;;;;5055889;28;20063;-75
2022/11/15 05:21:12;;;;;;;72.68;41.17;;;8.90;99.90;;;;;;5056282;28;20050;-76
2022/11/15 05:23:38;;;;;;;84.72;42.63;;;8.90;99.90;;;;;;5072997;28;20037;-75
2022/11/15 05:26:05;;;;;;;73.88;39.90;;;8.90;99.90;;;;;;5056030;28;20033;-75
2022/11/15 05:28:31;;;;;;;75.20;41.25;;;9.00;99.90;;;;;;5055934;28;20047;-76
2022/11/15 05:31:06;;;;;;;77.55;40.88;;;9.00;99.90;;;;;;5055809;28;20037;-75
2022/11/15 05:33:33;;;;;;;73.05;39.08;;;9.00;99.90;;;;;;5072577;28;20040;-75
2022/11/15 05:36:23;;;;;;;71.53;39.60;;;9.10;99.90;;;;;;5051795;28;20376;-76
2022/11/15 05:38:50;;;;;;;91.35;42.38;;;9.10;99.90;;;;;;5028759;28;20078;-75
2022/11/15 05:41:18;;;;;;;72.72;39.05;;;9.10;99.90;;;;;;5056089;28;20110;-75
2022/11/15 05:43:44;;;;;;;85.55;42.17;;;9.10;99.90;;;;;;5055558;28;20041;-74
2022/11/15 05:46:10;;;;;;;78.85;41.08;;;9.10;99.90;;;;;;5071766;28;20052;-75
2022/11/15 05:48:40;;;;;;;89.80;41.38;;;9.20;99.90;;;;;;5047199;28;20568;-75
2022/11/15 05:51:07;;;;;;;78.00;39.47;;;9.20;99.90;;;;;;5055425;28;20102;-75
2022/11/15 05:53:34;;;;;;;73.15;38.22;;;9.20;99.90;;;;;;5055671;28;20123;-75
2022/11/15 05:56:34;;;;;;;87.68;40.50;;;9.30;99.90;;;;;;5044199;22;20381;-75
2022/11/15 06:00:10;;;;;;;;;;;;;;;;;;;;;
2022/11/15 06:34:26;;;;;;;;;;;;;;;;;;;;;
2022/11/15 06:38:02;;;;;;;;;;;;;;;;;;;;;
2022/11/15 06:41:34;;;;;;;77.43;37.75;;;9.70;99.90;;;;;;4970821;28;20067;-76
2022/11/15 06:45:22;;;;;;;;;;;;;;;;;;;;;
2022/11/15 06:59:29;;;;;;;63.15;34.38;;;9.70;99.90;;;;;;5026139;28;20040;-76
2022/11/15 07:02:00;;;;;;;50.53;33.80;;;9.70;99.90;;;;;;5031484;28;20033;-76
2022/11/15 07:08:59;;;;;;;54.72;33.88;;;9.80;99.90;;;;;;4985151;28;20048;-76
2022/11/15 07:12:53;;;;;;;51.50;33.47;;;9.80;99.90;;;;;;5021847;28;20041;-76
2022/11/15 07:14:58;;;;;;;62.50;33.88;;;9.70;99.90;;;;;;5035332;28;20071;-76
2022/11/15 07:28:52;;;;;;;50.88;32.45;;;9.90;99.90;;;;;;4990136;28;20137;-76
2022/11/15 07:36:19;;;;;;;;;;;;;;;;;;;;;
2022/11/15 07:39:34;;;;;;;51.63;32.35;;;10.00;99.90;;;;;;4963355;28;20051;-76
2022/11/15 07:46:04;;;;;;;50.30;32.75;;;10.00;99.90;;;;;;4923959;28;20052;-75
2022/11/15 07:48:54;;;;;;;60.60;32.42;;;10.00;99.90;;;;;;5017397;28;20041;-76
2022/11/15 08:00:04;;;;;;;56.08;33.28;;;10.10;99.90;;;;;;5030393;28;20427;-76
2022/11/15 08:02:46;;;;;;;42.45;30.63;;;10.10;99.90;;;;;;5031424;28;20605;-74
2022/11/15 08:08:54;;;;;;;55.47;31.95;;;10.20;99.90;;;;;;5073947;23;20044;-76
2022/11/15 08:14:54;;;;;;;48.42;31.48;;;10.30;99.90;;;;;;5064691;28;20043;-76
2022/11/15 08:18:15;;;;;;;53.15;31.25;;;10.30;99.90;;;;;;5062171;28;20044;-76
2022/11/15 08:24:51;;;;;;;57.80;32.88;;;10.40;99.90;;;;;;4986134;28;20088;-75
2022/11/15 08:30:55;;;;;;;;;;;;;;;;;;;;;
2022/11/15 08:33:58;;;;;;;45.92;31.00;;;10.50;99.90;;;;;;5078651;28;20040;-75
2022/11/15 08:36:30;;;;;;;50.17;31.13;;;10.50;99.90;;;;;;5049962;28;20514;-75
2022/11/15 08:39:05;;;;;;;56.90;32.20;;;10.60;99.90;;;;;;5064136;28;20032;-75
2022/11/15 08:41:56;;;;;;;42.70;29.55;;;10.50;99.90;;;;;;5056576;28;20033;-76
2022/11/15 08:44:23;;;;;;;49.78;30.83;;;10.60;99.90;;;;;;5063040;28;20080;-76
2022/11/15 08:46:49;;;;;;;51.17;31.90;;;10.60;99.90;;;;;;5053739;28;20044;-76
2022/11/15 08:49:26;;;;;;;46.53;30.80;;;10.70;99.90;;;;;;5042647;28;20099;-77
2022/11/15 08:51:55;;;;;;;52.42;30.90;;;10.70;99.90;;;;;;5073787;28;20129;-76
2022/11/15 08:54:48;;;;;;;48.55;30.75;;;10.80;99.90;;;;;;5055762;28;20087;-76
2022/11/15 08:58:14;;;;;;;44.97;30.38;;;10.90;99.90;;;;;;5069383;28;20067;-77
2022/11/15 09:00:48;;;;;;;48.50;31.08;;;10.90;99.90;;;;;;5066159;28;20037;-77
2022/11/15 09:03:17;;;;;;;42.53;29.27;;;11.10;99.90;;;;;;5061898;28;20040;-78
2022/11/15 09:05:42;;;;;;;37.83;27.73;;;11.20;99.90;;;;;;5056142;28;20045;-77
2022/11/15 09:08:08;;;;;;;44.70;27.83;;;11.10;99.90;;;;;;5074281;28;20032;-76
2022/11/15 09:10:33;;;;;;;41.63;28.08;;;11.10;99.90;;;;;;5069136;28;20402;-76
2022/11/15 09:12:59;;;;;;;37.90;27.23;;;11.10;99.90;;;;;;5069374;28;20036;-75
2022/11/15 09:15:25;;;;;;;42.92;27.48;;;11.10;99.90;;;;;;5063738;28;20116;-75
2022/11/15 09:17:50;;;;;;;33.20;26.55;;;11.00;99.90;;;;;;5058872;28;20052;-76
2022/11/15 09:20:18;;;;;;;38.10;26.58;;;11.10;99.90;;;;;;5067459;28;20025;-76
2022/11/15 09:22:44;;;;;;;39.08;27.95;;;11.10;99.90;;;;;;5056281;28;20055;-76
2022/11/15 09:25:10;;;;;;;32.40;25.55;;;11.20;99.90;;;;;;5066343;28;20048;-77
2022/11/15 09:27:35;;;;;;;36.70;26.75;;;11.10;99.90;;;;;;5048325;28;20048;-77
2022/11/15 09:30:01;;;;;;;36.22;25.75;;;11.20;99.90;;;;;;5071299;28;20070;-75
2022/11/15 09:32:30;;;;;;;34.35;25.63;;;11.20;99.90;;;;;;5055704;28;20051;-75
2022/11/15 09:34:56;;;;;;;31.92;23.60;;;11.20;99.90;;;;;;5070496;28;20044;-76
2022/11/15 09:37:21;;;;;;;32.40;24.52;;;11.20;99.90;;;;;;5069667;28;20062;-75
2022/11/15 09:39:47;;;;;;;33.92;24.60;;;11.30;99.90;;;;;;5053497;28;20036;-75
2022/11/15 09:42:44;;;;;;;31.83;25.23;;;11.30;99.90;;;;;;5049350;28;20037;-75
2022/11/15 09:45:33;;;;;;;33.20;23.05;;;11.40;99.90;;;;;;5047193;28;20052;-76
2022/11/15 09:48:23;;;;;;;29.00;20.85;;;11.40;99.90;;;;;;5070944;28;20048;-76
2022/11/15 09:50:53;;;;;;;29.02;21.35;;;11.40;99.90;;;;;;5049651;28;20128;-76
2022/11/15 09:53:41;;;;;;;28.60;21.70;;;11.50;99.90;;;;;;5070203;28;20051;-76
2022/11/15 09:56:30;;;;;;;26.30;20.30;;;11.50;99.90;;;;;;5052080;28;20674;-76
2022/11/15 09:59:24;;;;;;;22.33;17.65;;;11.50;99.90;;;;;;5058027;28;20042;-76
2022/11/15 10:02:18;;;;;;;22.95;17.50;;;11.50;99.90;;;;;;5081271;28;20041;-76
2022/11/15 10:04:44;;;;;;;19.15;16.50;;;11.50;99.90;;;;;;5064929;28;20037;-76
2022/11/15 10:07:15;;;;;;;20.38;16.67;;;11.50;99.90;;;;;;5065928;28;20037;-76
2022/11/15 10:09:58;;;;;;;22.67;17.13;;;11.40;99.90;;;;;;5065264;28;20041;-76
2022/11/15 10:12:24;;;;;;;;;;;11.40;99.90;;;;;;5067391;28;20123;-76
2022/11/15 10:15:06;;;;;;;20.05;16.15;;;11.40;99.90;;;;;;5051767;28;19939;-76
2022/11/15 10:17:38;;;;;;;24.95;17.42;;;11.40;99.90;;;;;;5067009;28;20656;-76
2022/11/15 10:20:24;;;;;;;20.35;17.17;;;11.50;99.90;;;;;;5066462;28;20040;-76
2022/11/15 10:22:54;;;;;;;19.42;15.98;;;11.50;99.90;;;;;;5066648;28;20032;-76
2022/11/15 10:25:24;;;;;;;22.58;17.08;;;11.60;99.90;;;;;;5069960;28;20047;-76
2022/11/15 10:28:09;;;;;;;21.17;16.52;;;11.60;99.90;;;;;;5037404;28;20033;-76
2022/11/15 10:30:45;;;;;;;18.52;16.00;;;11.70;99.90;;;;;;5040184;28;20029;-76
2022/11/15 10:33:38;;;;;;;23.98;16.35;;;11.80;99.90;;;;;;5047876;28;20560;-76
2022/11/15 10:36:09;;;;;;;19.98;15.15;;;11.90;99.90;;;;;;5066912;28;20036;-76
2022/11/15 10:38:50;;;;;;;15.32;13.70;;;12.00;99.90;;;;;;5062168;28;20050;-76
2022/11/15 10:41:31;;;;;;;15.95;12.73;;;12.00;99.90;;;;;;5048090;28;20040;-76
2022/11/15 10:44:15;;;;;;;14.00;12.32;;;12.00;99.90;;;;;;5052859;28;20028;-76
2022/11/15 10:46:43;;;;;;;15.10;12.45;;;11.90;99.90;;;;;;5040963;28;20040;-76
2022/11/15 10:49:18;;;;;;;13.70;10.43;;;11.90;99.90;;;;;;5070620;28;20044;-76
2022/11/15 10:51:49;;;;;;;12.05;10.48;;;11.90;99.90;;;;;;5070814;28;20506;-76
2022/11/15 10:54:33;;;;;;;15.20;9.80;;;11.80;99.90;;;;;;5063387;28;20051;-76
2022/11/15 10:57:00;;;;;;;13.93;10.52;;;11.80;99.90;;;;;;5069904;28;20224;-76
2022/11/15 10:59:33;;;;;;;11.55;10.02;;;11.80;99.90;;;;;;5043125;28;20507;-77
2022/11/15 11:01:59;;;;;;;11.55;9.50;;;11.80;99.90;;;;;;5042231;28;20041;-76
2022/11/15 11:04:25;;;;;;;12.32;9.30;;;11.80;99.90;;;;;;5046126;28;20032;-76
2022/11/15 11:06:53;;;;;;;8.27;7.45;;;11.90;99.90;;;;;;5054297;28;20102;-76
2022/11/15 11:09:29;;;;;;;8.82;7.60;;;11.90;99.90;;;;;;5071290;28;20033;-76
2022/11/15 11:11:55;;;;;;;11.35;7.75;;;12.00;99.90;;;;;;5049409;28;20043;-75
2022/11/15 11:14:30;;;;;;;8.88;7.38;;;12.00;99.90;;;;;;5062480;28;20048;-76
2022/11/15 11:17:11;;;;;;;8.30;6.75;;;11.90;99.90;;;;;;5069264;28;20044;-77
2022/11/15 11:19:40;;;;;;;10.30;7.30;;;11.90;99.90;;;;;;5047184;28;20050;-77
2022/11/15 11:22:30;;;;;;;10.38;7.82;;;12.10;99.90;;;;;;5047362;28;20036;-78
2022/11/15 11:25:11;;;;;;;9.27;7.63;;;12.20;99.90;;;;;;5051636;28;20029;-77
2022/11/15 11:28:02;;;;;;;8.57;6.97;;;12.30;99.90;;;;;;5042188;28;20045;-75
2022/11/15 11:30:46;;;;;;;10.50;6.68;;;12.30;99.90;;;;;;5029583;28;20033;-75
2022/11/15 11:33:32;;;;;;;9.25;6.88;;;12.30;99.90;;;;;;5067178;28;20048;-76
2022/11/15 11:35:57;;;;;;;8.85;6.05;;;12.40;99.90;;;;;;5034924;28;20103;-76
2022/11/15 11:38:44;;;;;;;7.53;5.78;;;12.30;99.90;;;;;;5050923;28;20511;-76
2022/11/15 11:41:39;;;;;;;7.60;6.30;;;12.40;99.90;;;;;;5070635;28;20044;-76
2022/11/15 11:44:24;;;;;;;7.55;6.30;;;12.50;99.90;;;;;;5070789;28;20379;-76
2022/11/15 11:47:10;;;;;;;7.28;5.15;;;12.70;99.90;;;;;;5050944;28;20064;-76
2022/11/15 11:49:45;;;;;;;7.28;5.03;;;12.80;99.90;;;;;;5062092;28;20040;-76
2022/11/15 11:52:17;;;;;;;5.95;4.80;;;12.70;99.90;;;;;;5070944;28;20036;-76
2022/11/15 11:55:05;;;;;;;6.95;4.88;;;12.80;99.90;;;;;;5069446;28;20516;-76
2022/11/15 11:57:43;;;;;;;6.90;4.65;;;12.80;99.90;;;;;;5052275;28;20124;-76
2022/11/15 12:00:22;;;;;;;10.63;4.57;;;12.70;99.90;;;;;;5069857;28;20490;-76
2022/11/15 12:02:52;;;;;;;6.45;4.72;;;12.70;99.90;;;;;;5065556;28;20046;-76
2022/11/15 12:05:37;;;;;;;7.65;4.50;;;12.60;99.90;;;;;;5065971;28;20048;-76
2022/11/15 12:08:32;;;;;;;4.97;3.90;;;12.70;99.90;;;;;;5067384;28;20028;-75
2022/11/15 12:11:06;;;;;;;7.50;4.88;;;12.90;99.90;;;;;;5057909;28;20109;-76
2022/11/15 12:13:36;;;;;;;6.70;4.40;;;13.00;99.90;;;;;;5069498;28;20044;-75
2022/11/15 12:16:21;;;;;;;7.32;4.30;;;13.00;99.90;;;;;;5067125;28;20051;-75
2022/11/15 12:18:52;;;;;;;6.18;4.13;;;13.20;99.90;;;;;;5049275;28;20045;-77
2022/11/15 12:21:27;;;;;;;6.90;4.05;;;13.10;99.90;;;;;;5066788;28;20458;-77
2022/11/15 12:24:00;;;;;;;4.97;4.03;;;13.10;99.90;;;;;;5064205;28;20411;-77
2022/11/15 12:26:31;;;;;;;6.38;4.18;;;13.00;99.90;;;;;;5063785;28;20040;-76
2022/11/15 12:29:09;;;;;;;5.90;4.43;;;12.90;99.90;;;;;;5064328;28;20071;-76
2022/11/15 12:31:35;;;;;;;5.80;3.78;;;12.80;99.90;;;;;;5065485;28;20047;-75
2022/11/15 12:34:15;;;;;;;6.60;3.78;;;12.70;99.90;;;;;;5064521;28;20037;-76
2022/11/15 12:36:44;;;;;;;4.85;3.83;;;12.70;99.90;;;;;;5036819;28;20048;-76
2022/11/15 12:39:11;;;;;;;6.28;3.53;;;12.60;99.90;;;;;;5069156;28;20076;-76
2022/11/15 12:41:39;;;;;;;4.28;3.58;;;12.70;99.90;;;;;;5058248;28;20047;-76
2022/11/15 12:44:33;;;;;;;4.57;4.05;;;12.70;99.90;;;;;;5052179;28;20033;-76
2022/11/15 12:47:10;;;;;;;5.32;3.85;;;12.70;99.90;;;;;;5061503;28;20037;-76
2022/11/15 12:49:36;;;;;;;4.63;3.42;;;12.70;99.90;;;;;;5068667;28;20055;-76
2022/11/15 12:52:01;;;;;;;4.75;3.17;;;12.70;99.90;;;;;;5070121;28;20601;-76
2022/11/15 12:54:29;;;;;;;3.70;3.20;;;12.60;99.90;;;;;;5052967;28;20037;-76
2022/11/15 12:57:03;;;;;;;8.95;3.17;;;12.50;99.90;;;;;;5045235;28;20044;-77
2022/11/15 12:59:55;;;;;;;4.18;2.67;;;12.50;99.90;;;;;;5084150;28;20037;-77
2022/11/15 13:02:24;;;;;;;3.78;2.85;;;12.40;99.90;;;;;;5067705;28;20048;-77
2022/11/15 13:04:54;;;;;;;3.67;2.97;;;12.40;99.90;;;;;;5067238;28;20449;-78
2022/11/15 13:07:34;;;;;;;7.78;2.80;;;12.50;99.90;;;;;;5068609;28;20511;-77
2022/11/15 13:10:21;;;;;;;3.08;2.38;;;12.50;99.90;;;;;;5067946;28;20132;-77
2022/11/15 13:12:46;;;;;;;3.53;2.20;;;12.50;99.90;;;;;;5082162;28;20347;-77
2022/11/15 13:15:12;;;;;;;2.08;1.88;;;12.50;99.90;;;;;;5072933;28;20044;-77
2022/11/15 13:17:57;;;;;;;4.45;2.17;;;12.50;99.90;;;;;;5074642;28;20119;-78
2022/11/15 13:20:31;;;;;;;2.22;1.70;;;12.40;99.90;;;;;;5073940;28;20127;-78
2022/11/15 13:23:02;;;;;;;2.95;1.90;;;12.30;99.90;;;;;;5054448;28;20097;-77
2022/11/15 13:25:39;;;;;;;2.63;1.80;;;12.30;99.90;;;;;;5073919;28;20040;-78
2022/11/15 13:28:14;;;;;;;2.58;2.05;;;12.30;99.90;;;;;;5058289;28;20123;-77
2022/11/15 13:30:58;;;;;;;4.20;2.25;;;12.30;99.90;;;;;;5054482;28;20556;-78
2022/11/15 13:33:25;;;;;;;4.10;2.03;;;12.30;99.90;;;;;;5069203;28;20064;-77
2022/11/15 13:35:55;;;;;;;3.13;1.90;;;12.30;99.90;;;;;;5069967;28;20469;-77
2022/11/15 13:38:35;;;;;;;3.25;1.83;;;12.30;99.90;;;;;;5073044;28;20048;-77
2022/11/15 13:41:21;;;;;;;2.25;1.48;;;12.20;99.90;;;;;;5068650;28;20059;-77
2022/11/15 13:43:49;;;;;;;3.80;1.60;;;12.20;99.90;;;;;;5071543;28;20453;-77
2022/11/15 13:46:23;;;;;;;1.75;1.38;;;12.20;99.90;;;;;;5071701;28;20037;-77
2022/11/15 13:49:04;;;;;;;3.45;1.60;;;12.10;99.90;;;;;;5072374;28;20113;-77
2022/11/15 13:51:42;;;;;;;1.65;1.30;;;12.00;99.90;;;;;;5070849;28;20029;-77
2022/11/15 13:54:08;;;;;;;4.00;1.45;;;12.00;99.90;;;;;;5071394;28;20128;-77
2022/11/15 13:56:34;;;;;;;1.70;1.60;;;11.90;99.90;;;;;;5072748;28;20123;-78
2022/11/15 13:59:07;;;;;;;2.42;1.55;;;11.80;99.90;;;;;;5071702;28;20081;-77
2022/11/15 14:01:33;;;;;;;2.72;1.40;;;11.80;99.90;;;;;;5066958;28;20040;-78
2022/11/15 14:04:00;;;;;;;2.40;1.50;;;11.70;99.90;;;;;;5064454;28;20029;-78
2022/11/15 14:06:50;;;;;;;1.92;1.20;;;11.60;99.90;;;;;;5067550;28;20060;-77
2022/11/15 14:09:33;;;;;;;1.83;0.98;;;11.60;99.90;;;;;;5067440;28;20090;-78
2022/11/15 14:12:03;;;;;;;3.50;1.45;;;11.60;99.90;;;;;;5065612;28;20070;-77
2022/11/15 14:14:47;;;;;;;3.88;1.38;;;11.50;99.90;;;;;;5067865;28;20040;-77
2022/11/15 14:17:35;;;;;;;2.22;1.33;;;11.50;99.90;;;;;;5050786;28;20052;-77
2022/11/15 14:20:01;;;;;;;2.10;1.15;;;11.50;99.90;;;;;;5049504;28;20041;-78
2022/11/15 14:22:29;;;;;;;3.78;1.05;;;11.40;99.90;;;;;;5054348;28;20041;-78
2022/11/15 14:25:13;;;;;;;3.20;1.10;;;11.50;99.90;;;;;;5067993;28;20053;-79
2022/11/15 14:27:41;;;;;;;2.30;1.20;;;11.50;99.90;;;;;;5064163;28;20418;-79
2022/11/15 14:30:16;;;;;;;4.28;1.33;;;11.50;99.90;;;;;;5062098;28;20033;-79
2022/11/15 14:32:49;;;;;;;2.50;1.33;;;11.50;99.90;;;;;;5068719;28;20059;-81
2022/11/15 14:35:23;;;;;;;3.03;1.67;;;11.50;99.90;;;;;;5067609;28;20037;-77
2022/11/15 14:37:49;;;;;;;3.25;1.70;;;11.40;99.90;;;;;;5053342;28;20411;-78
2022/11/15 14:40:18;;;;;;;3.33;1.80;;;11.40;99.90;;;;;;5071391;28;20044;-77
2022/11/15 14:42:48;;;;;;;4.82;2.10;;;11.40;99.90;;;;;;5067540;28;20094;-77
2022/11/15 14:45:21;;;;;;;5.00;2.03;;;11.40;99.90;;;;;;5070271;28;20090;-77
2022/11/15 14:47:48;;;;;;;5.15;2.35;;;11.40;99.90;;;;;;5070153;28;20123;-78
2022/11/15 14:50:16;;;;;;;3.22;2.65;;;11.40;99.90;;;;;;5063200;28;20036;-77
2022/11/15 14:52:42;;;;;;;6.40;2.80;;;11.40;99.90;;;;;;5069097;28;20040;-78
2022/11/15 14:55:24;;;;;;;5.32;3.15;;;11.30;99.90;;;;;;5053044;28;20091;-78
2022/11/15 14:57:50;;;;;;;4.55;3.00;;;11.30;99.90;;;;;;5064731;28;20127;-78
2022/11/15 15:00:16;;;;;;;3.58;2.90;;;11.20;99.90;;;;;;5069808;28;20127;-78
2022/11/15 15:02:44;;;;;;;3.47;3.00;;;11.20;99.90;;;;;;5051010;28;20097;-78
2022/11/15 15:05:30;;;;;;;4.38;3.67;;;11.20;99.90;;;;;;5049353;28;20082;-78
2022/11/15 15:07:56;;;;;;;4.57;3.83;;;11.20;99.90;;;;;;5063743;28;20052;-78
2022/11/15 15:10:22;;;;;;;4.40;3.53;;;11.20;99.90;;;;;;5069154;28;20378;-78
2022/11/15 15:12:49;;;;;;;5.50;4.18;;;11.10;99.90;;;;;;5051969;28;20089;-77
2022/11/15 15:15:26;;;;;;;5.07;4.43;;;11.10;99.90;;;;;;5051631;28;20448;-80